Time;durP1;ratioP1;P1;durP2;ratioP2;P2;SDS_P1;SDS_P2;PMS_P1;PMS_P2;Temp;Humidity;BMP_temperature;BMP_pressure;BME280_temperature;BME280_humidity;BME280_pressure;Samples;Min_cycle;Max_cycle;Signal;HPM_P1;HPM_P2
2022/12/04 00:01:09;;;;;;;47.47;24.42;;;2.50;99.90;;;;;;5046961;28;20508;-72
2022/12/04 00:03:35;;;;;;;53.15;24.23;;;2.50;99.90;;;;;;5049762;28;20028;-71
2022/12/04 00:06:17;;;;;;;51.08;26.90;;;2.50;99.90;;;;;;5047998;28;20029;-71
2022/12/04 00:08:44;;;;;;;53.70;27.88;;;2.50;99.90;;;;;;5046757;28;20400;-71
2022/12/04 00:11:12;;;;;;;59.63;29.60;;;2.50;99.90;;;;;;5045480;28;20024;-71
2022/12/04 00:13:39;;;;;;;61.72;30.67;;;2.50;99.90;;;;;;5045077;28;20033;-71
2022/12/04 00:16:06;;;;;;;63.50;31.10;;;2.40;99.90;;;;;;5043276;28;20028;-71
2022/12/04 00:18:32;;;;;;;63.50;32.58;;;2.40;99.90;;;;;;5046351;28;20056;-71
2022/12/04 00:20:58;;;;;;;64.15;31.95;;;2.40;99.90;;;;;;5041051;28;20040;-72
2022/12/04 00:23:23;;;;;;;69.53;32.50;;;2.30;99.90;;;;;;5043946;28;20033;-72
2022/12/04 00:25:49;;;;;;;83.38;37.72;;;2.30;99.90;;;;;;5045619;28;20452;-70
2022/12/04 00:28:18;;;;;;;79.47;36.40;;;2.30;99.90;;;;;;5042637;28;20061;-71
2022/12/04 00:30:44;;;;;;;84.20;37.05;;;2.30;99.90;;;;;;5046648;28;20029;-72
2022/12/04 00:33:11;;;;;;;104.65;43.58;;;2.20;99.90;;;;;;5050732;28;20036;-71
2022/12/04 00:35:37;;;;;;;86.15;43.85;;;2.20;99.90;;;;;;5047009;28;20024;-72
2022/12/04 00:38:02;;;;;;;97.57;41.53;;;2.20;99.90;;;;;;5046738;28;20030;-71
2022/12/04 00:40:28;;;;;;;87.10;39.25;;;2.20;99.90;;;;;;5044632;28;20020;-72
2022/12/04 00:42:53;;;;;;;70.00;33.92;;;2.20;99.90;;;;;;5046687;28;20032;-71
2022/12/04 00:45:19;;;;;;;73.82;34.95;;;2.20;99.90;;;;;;5043756;28;20017;-71
2022/12/04 00:47:45;;;;;;;77.07;34.70;;;2.20;99.90;;;;;;5046847;28;20463;-71
2022/12/04 00:50:10;;;;;;;79.18;35.20;;;2.10;99.90;;;;;;5048242;28;20040;-71
2022/12/04 00:52:36;;;;;;;76.60;32.13;;;2.10;99.90;;;;;;5047067;28;20025;-71
2022/12/04 00:55:02;;;;;;;65.15;33.55;;;2.10;99.90;;;;;;5042323;28;20064;-71
2022/12/04 00:57:28;;;;;;;64.75;32.20;;;2.10;99.90;;;;;;5043886;28;20048;-71
2022/12/04 00:59:54;;;;;;;67.07;34.15;;;2.10;99.90;;;;;;5034762;28;20021;-71
2022/12/04 01:02:19;;;;;;;67.38;33.25;;;2.10;99.90;;;;;;5046597;28;20485;-71
2022/12/04 01:04:45;;;;;;;65.70;32.97;;;2.00;99.90;;;;;;5046443;28;20106;-71
2022/12/04 01:07:10;;;;;;;63.08;32.03;;;2.10;99.90;;;;;;5042596;28;20103;-72
2022/12/04 01:09:36;;;;;;;62.63;29.23;;;2.10;99.90;;;;;;5049193;28;20437;-70
2022/12/04 01:12:01;;;;;;;62.40;29.45;;;2.00;99.90;;;;;;5035430;28;20070;-72
2022/12/04 01:14:27;;;;;;;57.75;28.73;;;2.00;99.90;;;;;;5049158;28;20484;-69
2022/12/04 01:16:53;;;;;;;68.63;30.90;;;2.00;99.90;;;;;;5048277;28;20021;-71
2022/12/04 01:19:18;;;;;;;60.08;31.35;;;2.00;99.90;;;;;;5048035;28;20025;-71
2022/12/04 01:21:44;;;;;;;61.22;29.40;;;2.00;99.90;;;;;;5042902;28;20033;-71
2022/12/04 01:24:09;;;;;;;61.45;30.05;;;2.00;99.90;;;;;;5039916;28;20433;-70
2022/12/04 01:26:35;;;;;;;60.83;29.65;;;2.00;99.90;;;;;;5047289;28;20037;-71
2022/12/04 01:29:01;;;;;;;59.65;28.55;;;2.00;99.90;;;;;;5047559;28;20442;-71
2022/12/04 01:31:28;;;;;;;60.83;29.05;;;2.00;99.90;;;;;;5042342;28;20419;-71
2022/12/04 01:33:53;;;;;;;67.90;30.67;;;1.90;99.90;;;;;;5043977;28;20096;-71
2022/12/04 01:36:25;;;;;;;50.72;25.83;;;1.90;99.90;;;;;;5030504;28;20018;-70
2022/12/04 01:38:51;;;;;;;60.35;29.65;;;1.90;99.90;;;;;;5049895;28;20488;-71
2022/12/04 01:41:20;;;;;;;64.30;29.27;;;2.00;99.90;;;;;;5032239;28;20025;-71
2022/12/04 01:44:08;;;;;;;59.42;28.58;;;1.90;99.90;;;;;;5039321;28;20033;-71
2022/12/04 01:46:33;;;;;;;54.80;28.38;;;2.00;99.90;;;;;;5044582;28;20029;-71
2022/12/04 01:48:59;;;;;;;56.70;28.20;;;1.90;99.90;;;;;;5043033;28;20394;-71
2022/12/04 01:51:33;;;;;;;56.88;28.98;;;2.00;99.90;;;;;;5047299;28;20052;-70
2022/12/04 01:54:03;;;;;;;56.72;28.80;;;1.90;99.90;;;;;;5049590;28;20084;-71
2022/12/04 01:56:38;;;;;;;67.97;31.40;;;1.80;99.90;;;;;;5046897;28;20047;-72
2022/12/04 01:59:06;;;;;;;71.22;34.08;;;1.80;99.90;;;;;;5041717;28;20079;-71
2022/12/04 02:01:39;;;;;;;65.90;32.00;;;1.80;99.90;;;;;;5057764;22;20420;-74
2022/12/04 02:04:05;;;;;;;66.20;31.30;;;1.70;99.90;;;;;;5023945;28;20029;-74
2022/12/04 02:06:30;;;;;;;65.47;31.80;;;1.70;99.90;;;;;;5019533;28;20092;-73
2022/12/04 02:08:56;;;;;;;71.55;31.90;;;1.70;99.90;;;;;;5023973;28;20026;-73
2022/12/04 02:11:33;;;;;;;63.53;31.38;;;1.70;99.90;;;;;;5026538;28;20022;-73
2022/12/04 02:14:29;;;;;;;67.15;32.63;;;1.70;99.90;;;;;;5023150;28;20026;-73
2022/12/04 02:17:19;;;;;;;66.78;31.98;;;1.60;99.90;;;;;;5023608;28;20024;-73
2022/12/04 02:20:05;;;;;;;73.82;32.70;;;1.60;99.90;;;;;;5022405;28;20563;-72
2022/12/04 02:22:42;;;;;;;80.50;33.67;;;1.60;99.90;;;;;;5014470;28;20041;-73
2022/12/04 02:25:13;;;;;;;70.55;32.38;;;1.60;99.90;;;;;;5023912;28;20511;-73
2022/12/04 02:27:39;;;;;;;67.07;31.88;;;1.60;99.90;;;;;;5021917;28;20034;-73
2022/12/04 02:30:11;;;;;;;67.50;31.20;;;1.50;99.90;;;;;;5012728;28;20036;-73
2022/12/04 02:32:56;;;;;;;67.57;31.98;;;1.50;99.90;;;;;;5020718;28;20377;-72
2022/12/04 02:35:38;;;;;;;58.20;29.25;;;1.50;99.90;;;;;;5007520;28;20026;-72
2022/12/04 02:38:08;;;;;;;68.88;31.02;;;1.50;99.90;;;;;;5021255;28;20396;-73
2022/12/04 02:40:44;;;;;;;65.20;30.33;;;1.50;99.90;;;;;;5026196;28;20071;-72
2022/12/04 02:43:16;;;;;;;66.50;31.05;;;1.50;99.90;;;;;;5024355;28;20081;-72
2022/12/04 02:45:46;;;;;;;66.13;32.13;;;1.50;99.90;;;;;;5024653;28;20515;-73
2022/12/04 02:48:17;;;;;;;65.65;31.92;;;1.60;99.90;;;;;;5020721;28;20030;-73
2022/12/04 02:50:46;;;;;;;72.57;34.20;;;1.60;99.90;;;;;;5008409;28;20120;-72
2022/12/04 02:53:29;;;;;;;72.85;33.22;;;1.50;99.90;;;;;;5021789;28;20032;-72
2022/12/04 02:56:00;;;;;;;69.40;31.08;;;1.50;99.90;;;;;;5027087;28;20032;-73
2022/12/04 02:58:33;;;;;;;73.97;32.25;;;1.50;99.90;;;;;;5031563;28;20037;-72
2022/12/04 03:01:01;;;;;;;66.60;33.58;;;1.50;99.90;;;;;;5035245;28;20033;-74
2022/12/04 03:03:29;;;;;;;74.32;33.10;;;1.50;99.90;;;;;;5033266;28;20050;-74
2022/12/04 03:06:06;;;;;;;75.72;33.90;;;1.50;99.90;;;;;;5026165;28;20065;-74
2022/12/04 03:08:39;;;;;;;73.72;33.58;;;1.50;99.90;;;;;;5030788;28;20053;-74
2022/12/04 03:11:05;;;;;;;67.97;29.50;;;1.50;99.90;;;;;;5031534;28;20503;-74
2022/12/04 03:13:52;;;;;;;73.70;33.63;;;1.50;99.90;;;;;;5032065;28;20021;-74
2022/12/04 03:16:23;;;;;;;74.00;32.85;;;1.50;99.90;;;;;;5025641;28;20052;-74
2022/12/04 03:19:01;;;;;;;72.97;31.35;;;1.60;99.90;;;;;;5028065;28;20108;-74
2022/12/04 03:21:31;;;;;;;69.90;31.48;;;1.60;99.90;;;;;;5033969;28;20029;-74
2022/12/04 03:24:09;;;;;;;78.55;33.83;;;1.60;99.90;;;;;;5025157;28;20048;-74
2022/12/04 03:26:45;;;;;;;64.40;31.52;;;1.60;99.90;;;;;;5023158;28;20477;-74
2022/12/04 03:29:22;;;;;;;65.50;31.67;;;1.60;99.90;;;;;;5018494;28;20068;-74
2022/12/04 03:32:03;;;;;;;62.80;31.38;;;1.60;99.90;;;;;;5018195;28;20029;-74
2022/12/04 03:34:38;;;;;;;77.95;33.17;;;1.70;99.90;;;;;;5035974;28;20022;-74
2022/12/04 03:37:12;;;;;;;69.82;32.90;;;1.70;99.90;;;;;;5035309;28;20017;-74
2022/12/04 03:39:51;;;;;;;68.97;32.33;;;1.70;99.90;;;;;;5035703;28;20022;-74
2022/12/04 03:42:55;;;;;;;75.32;31.33;;;1.70;99.90;;;;;;5017839;28;20029;-74
2022/12/04 03:45:28;;;;;;;64.55;32.85;;;1.80;99.90;;;;;;5021405;28;20033;-74
2022/12/04 03:48:03;;;;;;;66.03;30.80;;;1.80;99.90;;;;;;5021511;28;20236;-74
2022/12/04 03:50:44;;;;;;;68.82;33.10;;;1.80;99.90;;;;;;5035420;28;20416;-74
2022/12/04 03:53:23;;;;;;;67.40;33.85;;;1.80;99.90;;;;;;5035388;28;20056;-74
2022/12/04 03:56:17;;;;;;;72.18;31.88;;;1.80;99.90;;;;;;5035340;28;20029;-74
2022/12/04 03:58:51;;;;;;;70.68;33.45;;;1.80;99.90;;;;;;5032252;28;20037;-74
2022/12/04 04:01:21;;;;;;;71.60;34.38;;;1.90;99.90;;;;;;5035077;28;20029;-74
2022/12/04 04:03:50;;;;;;;74.20;31.75;;;1.90;99.90;;;;;;5035153;28;20024;-74
2022/12/04 04:06:27;;;;;;;62.67;30.88;;;1.90;99.90;;;;;;5035094;28;20009;-74
2022/12/04 04:08:58;;;;;;;63.92;30.90;;;1.90;99.90;;;;;;5034664;28;20096;-74
2022/12/04 04:11:42;;;;;;;61.72;29.90;;;1.90;99.90;;;;;;5027537;28;20025;-74
2022/12/04 04:25:26;;;;;;;66.25;30.52;;;1.90;99.90;;;;;;5035303;28;20123;-74
2022/12/04 04:27:53;;;;;;;62.78;29.42;;;2.00;99.90;;;;;;5034662;28;20030;-74
2022/12/04 04:30:19;;;;;;;54.85;27.40;;;2.00;99.90;;;;;;5034710;28;20036;-74
2022/12/04 04:33:01;;;;;;;57.97;29.60;;;2.00;99.90;;;;;;5034869;28;20117;-74
2022/12/04 04:35:39;;;;;;;65.88;30.80;;;2.00;99.90;;;;;;5034836;28;20105;-73
2022/12/04 04:38:04;;;;;;;55.80;30.17;;;2.00;99.90;;;;;;5034911;28;20026;-73
2022/12/04 04:40:36;;;;;;;65.78;30.83;;;2.00;99.90;;;;;;5034244;28;20087;-73
2022/12/04 04:43:31;;;;;;;60.45;29.75;;;2.00;99.90;;;;;;5034710;28;20025;-74
2022/12/04 04:46:03;;;;;;;66.88;31.17;;;2.00;99.90;;;;;;5035455;28;20432;-73
2022/12/04 04:48:33;;;;;;;63.60;31.88;;;2.00;99.90;;;;;;5034674;28;20532;-74
2022/12/04 04:51:01;;;;;;;58.88;29.58;;;2.00;99.90;;;;;;5016512;28;20445;-74
2022/12/04 04:53:40;;;;;;;65.30;32.30;;;2.10;99.90;;;;;;5019027;28;20469;-74
2022/12/04 04:56:06;;;;;;;62.00;30.77;;;2.10;99.90;;;;;;5015295;28;20024;-73
2022/12/04 04:58:32;;;;;;;61.78;30.70;;;2.00;99.90;;;;;;5014659;28;20022;-73
2022/12/04 05:01:11;;;;;;;64.38;30.58;;;2.10;99.90;;;;;;5028841;28;20461;-74
2022/12/04 05:03:36;;;;;;;63.78;30.98;;;2.10;99.90;;;;;;5012926;28;20033;-74
2022/12/04 05:06:02;;;;;;;69.00;32.20;;;2.10;99.90;;;;;;5014062;28;20026;-74
2022/12/04 05:08:28;;;;;;;64.32;30.33;;;2.10;99.90;;;;;;5027324;28;20033;-74
2022/12/04 05:10:53;;;;;;;62.10;30.73;;;2.10;99.90;;;;;;5034143;28;20056;-73
2022/12/04 05:13:20;;;;;;;63.55;29.85;;;2.10;99.90;;;;;;5034662;28;20492;-74
2022/12/04 05:15:56;;;;;;;62.05;28.88;;;2.10;99.90;;;;;;5031639;28;20029;-74
2022/12/04 05:18:21;;;;;;;62.40;30.17;;;2.10;99.90;;;;;;5032253;28;20018;-73
2022/12/04 05:20:47;;;;;;;59.03;31.45;;;2.20;99.90;;;;;;5015168;28;20029;-74
2022/12/04 05:23:12;;;;;;;60.15;30.90;;;2.20;99.90;;;;;;5034132;28;20040;-73
2022/12/04 05:25:38;;;;;;;63.30;29.65;;;2.20;99.90;;;;;;5034030;28;20095;-73
2022/12/04 05:28:03;;;;;;;61.97;32.35;;;2.20;99.90;;;;;;5033931;28;20060;-74
2022/12/04 05:30:29;;;;;;;61.97;32.17;;;2.30;99.90;;;;;;5033739;28;20391;-73
2022/12/04 05:32:54;;;;;;;65.93;30.42;;;2.30;99.90;;;;;;5033278;28;20468;-74
2022/12/04 05:35:20;;;;;;;65.00;31.05;;;2.30;99.90;;;;;;5033713;28;20036;-73
2022/12/04 05:37:46;;;;;;;62.75;29.70;;;2.30;99.90;;;;;;5033739;28;20029;-73
2022/12/04 05:40:11;;;;;;;57.83;30.38;;;2.30;99.90;;;;;;5033436;28;20017;-74
2022/12/04 05:42:37;;;;;;;63.28;30.25;;;2.30;99.90;;;;;;5033491;28;20041;-74
2022/12/04 05:45:03;;;;;;;53.03;28.92;;;2.40;99.90;;;;;;5033620;28;20079;-73
2022/12/04 05:47:28;;;;;;;64.55;31.65;;;2.40;99.90;;;;;;5033801;28;20028;-73
2022/12/04 05:49:54;;;;;;;61.70;31.15;;;2.40;99.90;;;;;;5032974;28;20032;-74
2022/12/04 05:52:19;;;;;;;54.42;29.02;;;2.40;99.90;;;;;;5033233;28;20025;-74
2022/12/04 05:54:45;;;;;;;60.95;29.10;;;2.40;99.90;;;;;;5033640;28;20029;-73
2022/12/04 05:57:10;;;;;;;59.13;30.77;;;2.40;99.90;;;;;;5033652;28;20546;-73
2022/12/04 05:59:36;;;;;;;61.78;31.42;;;2.40;99.90;;;;;;5032950;28;20151;-74
2022/12/04 06:02:02;;;;;;;62.42;31.15;;;2.50;99.90;;;;;;5029686;28;20059;-74
2022/12/04 06:04:28;;;;;;;67.00;31.83;;;2.50;99.90;;;;;;5013750;28;20033;-73
2022/12/04 06:06:54;;;;;;;57.50;28.35;;;2.50;99.90;;;;;;5013973;28;20481;-74
2022/12/04 06:09:20;;;;;;;58.72;29.20;;;2.50;99.90;;;;;;4995539;28;20030;-74
2022/12/04 06:11:46;;;;;;;60.42;31.48;;;2.60;99.90;;;;;;5013847;28;20547;-73
2022/12/04 06:14:14;;;;;;;64.47;30.92;;;2.50;99.90;;;;;;5011341;28;20029;-74
2022/12/04 06:16:41;;;;;;;58.65;29.92;;;2.60;99.90;;;;;;5012296;28;20030;-74
2022/12/04 06:19:18;;;;;;;56.47;30.10;;;2.60;99.90;;;;;;5029193;28;20035;-74
2022/12/04 06:21:46;;;;;;;62.35;30.92;;;2.60;99.90;;;;;;5033634;28;20075;-73
2022/12/04 06:24:17;;;;;;;59.58;30.00;;;2.60;99.90;;;;;;5033177;28;20025;-74
2022/12/04 06:26:43;;;;;;;62.42;31.02;;;2.60;99.90;;;;;;5033569;28;20489;-73
2022/12/04 06:29:11;;;;;;;62.08;30.10;;;2.60;99.90;;;;;;5033165;28;20057;-74
2022/12/04 06:31:37;;;;;;;63.83;31.45;;;2.70;99.90;;;;;;5017535;28;20478;-74
2022/12/04 06:34:03;;;;;;;60.63;30.77;;;2.60;99.90;;;;;;5037222;28;20026;-73
2022/12/04 06:36:29;;;;;;;60.28;30.38;;;2.60;99.90;;;;;;5037206;28;20022;-73
2022/12/04 06:38:55;;;;;;;55.88;28.63;;;2.60;99.90;;;;;;5037121;28;20021;-73
2022/12/04 06:41:22;;;;;;;50.35;27.25;;;2.60;99.90;;;;;;5018706;28;20116;-74
2022/12/04 06:43:49;;;;;;;59.72;28.92;;;2.50;99.90;;;;;;5038077;28;20345;-74
2022/12/04 06:46:20;;;;;;;52.53;27.67;;;2.50;99.90;;;;;;5019168;28;20053;-74
2022/12/04 06:48:46;;;;;;;52.42;28.40;;;2.50;99.90;;;;;;5037079;28;20029;-73
2022/12/04 06:51:15;;;;;;;56.60;28.83;;;2.50;99.90;;;;;;5036963;28;20488;-74
2022/12/04 06:53:40;;;;;;;57.95;29.70;;;2.60;99.90;;;;;;5036311;28;20037;-74
2022/12/04 06:56:09;;;;;;;59.03;28.63;;;2.60;99.90;;;;;;5036731;28;20033;-73
2022/12/04 06:58:35;;;;;;;58.17;29.42;;;2.70;99.90;;;;;;5037136;28;20030;-73
2022/12/04 07:01:09;;;;;;;51.13;27.73;;;2.70;99.90;;;;;;5036405;28;20112;-73
2022/12/04 07:03:35;;;;;;;54.22;26.88;;;2.70;99.90;;;;;;5012194;28;20029;-74
2022/12/04 07:06:12;;;;;;;53.25;28.08;;;2.70;99.90;;;;;;5017105;28;20024;-73
2022/12/04 07:08:38;;;;;;;58.90;28.52;;;2.70;99.90;;;;;;5033391;28;20029;-74
2022/12/04 07:11:03;;;;;;;53.30;27.02;;;2.70;99.90;;;;;;5036307;28;20502;-73
2022/12/04 07:13:29;;;;;;;48.90;27.42;;;2.70;99.90;;;;;;5035717;28;20032;-74
2022/12/04 07:15:54;;;;;;;53.45;27.52;;;2.80;99.90;;;;;;5018613;28;20389;-73
2022/12/04 07:18:20;;;;;;;53.03;27.98;;;2.80;99.90;;;;;;5036109;28;20030;-74
2022/12/04 07:20:45;;;;;;;53.38;29.05;;;2.80;99.90;;;;;;5019107;28;20033;-74
2022/12/04 07:23:11;;;;;;;56.38;27.02;;;2.80;99.90;;;;;;5035594;28;20107;-74
2022/12/04 07:25:39;;;;;;;48.60;26.42;;;2.80;99.90;;;;;;5036436;28;20508;-73
2022/12/04 07:28:05;;;;;;;48.53;26.98;;;2.80;99.90;;;;;;5036152;28;20041;-73
2022/12/04 07:30:31;;;;;;;48.55;25.25;;;2.80;99.90;;;;;;5035739;28;20032;-74
2022/12/04 07:32:56;;;;;;;52.50;27.27;;;2.90;99.90;;;;;;5018591;28;20034;-74
2022/12/04 07:35:22;;;;;;;52.88;26.70;;;2.80;99.90;;;;;;5016177;28;20370;-73
2022/12/04 07:37:47;;;;;;;42.55;24.52;;;2.90;99.90;;;;;;5016756;28;20038;-74
2022/12/04 07:40:13;;;;;;;50.10;28.00;;;2.90;99.90;;;;;;5035737;28;20029;-74
2022/12/04 07:42:38;;;;;;;47.20;25.83;;;2.90;99.90;;;;;;5034464;28;20087;-74
2022/12/04 07:45:04;;;;;;;44.67;24.17;;;2.90;99.90;;;;;;5036025;28;20025;-74
2022/12/04 07:47:30;;;;;;;50.20;26.30;;;3.00;99.90;;;;;;5034718;28;20037;-74
2022/12/04 07:49:55;;;;;;;50.80;25.10;;;2.90;99.90;;;;;;5017618;28;20036;-74
2022/12/04 07:52:21;;;;;;;50.25;25.33;;;3.00;99.90;;;;;;5034816;28;20036;-74
2022/12/04 07:54:46;;;;;;;49.92;25.42;;;3.00;99.90;;;;;;5035912;28;20057;-74
2022/12/04 07:57:12;;;;;;;49.83;25.63;;;3.00;99.90;;;;;;5032077;28;20068;-74
2022/12/04 07:59:38;;;;;;;53.50;27.52;;;3.00;99.90;;;;;;5033577;28;20037;-74
2022/12/04 08:02:05;;;;;;;49.35;25.40;;;3.00;99.90;;;;;;5109466;23;20114;-72
2022/12/04 08:04:30;;;;;;;45.53;25.48;;;3.00;99.90;;;;;;5034537;28;20017;-72
2022/12/04 08:06:56;;;;;;;48.53;27.17;;;3.00;99.90;;;;;;5035039;28;20037;-72
2022/12/04 08:09:21;;;;;;;45.67;26.10;;;3.10;99.90;;;;;;5035013;28;20053;-71
2022/12/04 08:11:47;;;;;;;49.67;26.38;;;3.10;99.90;;;;;;5024432;28;20493;-72
2022/12/04 08:14:13;;;;;;;53.55;26.50;;;3.10;99.90;;;;;;5015263;28;20038;-72
2022/12/04 08:16:39;;;;;;;50.10;26.13;;;3.10;99.90;;;;;;5015451;28;20488;-71
2022/12/04 08:19:05;;;;;;;49.47;27.10;;;3.10;99.90;;;;;;5015337;28;20022;-71
2022/12/04 08:21:31;;;;;;;53.88;27.48;;;3.10;99.90;;;;;;5015074;28;20065;-72
2022/12/04 08:23:58;;;;;;;48.78;27.85;;;3.10;99.90;;;;;;5015000;28;20080;-71
2022/12/04 08:26:25;;;;;;;48.17;26.58;;;3.10;99.90;;;;;;5014515;28;20563;-72
2022/12/04 08:28:56;;;;;;;55.90;27.15;;;3.10;99.90;;;;;;5014883;28;20030;-71
2022/12/04 08:31:27;;;;;;;53.63;27.75;;;3.20;99.90;;;;;;5014741;28;20087;-72
2022/12/04 08:33:55;;;;;;;45.95;24.90;;;3.20;99.90;;;;;;5014648;28;20543;-72
2022/12/04 08:36:22;;;;;;;46.45;25.67;;;3.20;99.90;;;;;;5015071;28;20028;-72
2022/12/04 08:38:47;;;;;;;49.35;26.48;;;3.30;99.90;;;;;;5014780;28;20026;-72
2022/12/04 08:41:15;;;;;;;47.13;25.95;;;3.30;99.90;;;;;;5014627;28;20037;-71
2022/12/04 08:43:41;;;;;;;47.25;25.73;;;3.30;99.90;;;;;;5014676;28;20057;-71
2022/12/04 08:46:09;;;;;;;49.83;27.10;;;3.30;99.90;;;;;;5014065;28;20052;-72
2022/12/04 08:48:35;;;;;;;47.38;25.98;;;3.30;99.90;;;;;;5014576;28;20030;-72
2022/12/04 08:51:03;;;;;;;50.92;28.08;;;3.40;99.90;;;;;;5013107;28;20125;-72
2022/12/04 08:53:29;;;;;;;50.33;25.98;;;3.40;99.90;;;;;;5014690;28;20170;-71
2022/12/04 08:55:55;;;;;;;47.85;25.20;;;3.40;99.90;;;;;;5014755;28;20018;-71
2022/12/04 08:58:21;;;;;;;45.80;25.48;;;3.40;99.90;;;;;;5014161;28;20025;-72
2022/12/04 09:00:47;;;;;;;52.55;26.85;;;3.40;99.90;;;;;;5014725;28;20164;-71
2022/12/04 09:03:14;;;;;;;42.55;25.02;;;3.50;99.90;;;;;;5014328;28;20069;-71
2022/12/04 09:05:41;;;;;;;50.05;26.25;;;3.50;99.90;;;;;;5014350;28;20105;-73
2022/12/04 09:08:07;;;;;;;51.50;28.33;;;3.50;99.90;;;;;;5014463;28;20105;-72
2022/12/04 09:10:34;;;;;;;56.03;29.33;;;3.50;99.90;;;;;;5014301;28;20185;-71
2022/12/04 09:13:00;;;;;;;49.65;27.40;;;3.60;99.90;;;;;;5013762;28;20022;-72
2022/12/04 09:15:25;;;;;;;52.47;27.17;;;3.50;99.90;;;;;;5014124;28;20129;-71
2022/12/04 09:17:51;;;;;;;48.78;27.02;;;3.60;99.90;;;;;;5014098;28;20038;-72
2022/12/04 09:20:16;;;;;;;54.47;28.77;;;3.60;99.90;;;;;;5014030;28;20030;-71
2022/12/04 09:22:42;;;;;;;58.38;29.45;;;3.70;99.90;;;;;;5012662;28;20018;-71
2022/12/04 09:25:07;;;;;;;52.50;28.83;;;3.70;99.90;;;;;;5013410;28;20025;-72
2022/12/04 09:27:36;;;;;;;48.90;26.98;;;3.70;99.90;;;;;;5014207;28;20128;-71
2022/12/04 09:30:06;;;;;;;55.17;29.15;;;3.70;99.90;;;;;;5014027;28;20547;-71
2022/12/04 09:32:32;;;;;;;49.45;27.92;;;3.70;99.90;;;;;;5013751;28;20109;-72
2022/12/04 09:34:57;;;;;;;50.28;27.40;;;3.70;99.90;;;;;;5012594;28;20072;-71
2022/12/04 09:37:23;;;;;;;52.35;28.27;;;3.70;99.90;;;;;;5009198;28;20478;-72
2022/12/04 09:39:48;;;;;;;56.03;29.98;;;3.70;99.90;;;;;;5009193;28;20085;-72
2022/12/04 09:42:17;;;;;;;60.47;30.35;;;3.80;99.90;;;;;;4994008;28;20033;-72
2022/12/04 09:44:47;;;;;;;56.80;30.20;;;3.70;99.90;;;;;;4993613;28;20545;-72
2022/12/04 09:47:19;;;;;;;60.55;30.50;;;3.80;99.90;;;;;;5000580;28;20033;-72
2022/12/04 09:49:48;;;;;;;60.38;30.17;;;3.80;99.90;;;;;;5013759;28;20022;-72
2022/12/04 09:52:26;;;;;;;57.08;29.95;;;3.80;99.90;;;;;;5013469;28;20034;-72
2022/12/04 09:54:54;;;;;;;60.55;29.77;;;3.80;99.90;;;;;;5028687;28;20075;-72
2022/12/04 09:57:36;;;;;;;53.33;29.63;;;3.90;99.90;;;;;;4997492;28;20070;-73
2022/12/04 10:00:10;;;;;;;54.67;31.08;;;3.90;99.90;;;;;;4996648;28;20157;-72
2022/12/04 10:02:38;;;;;;;62.60;29.17;;;3.90;99.90;;;;;;4993808;28;20045;-72
2022/12/04 10:05:06;;;;;;;57.80;29.13;;;3.90;99.90;;;;;;4992077;28;20440;-71
2022/12/04 10:08:01;;;;;;;53.25;30.33;;;3.90;99.90;;;;;;4991981;28;20030;-72
2022/12/04 10:10:47;;;;;;;53.72;29.08;;;3.90;99.90;;;;;;4993887;28;20096;-72
2022/12/04 10:13:37;;;;;;;46.92;25.80;;;4.00;99.90;;;;;;4993438;28;20038;-72
2022/12/04 10:16:15;;;;;;;44.35;25.00;;;4.00;99.90;;;;;;4993230;28;20018;-72
2022/12/04 10:19:13;;;;;;;43.65;26.67;;;4.00;99.90;;;;;;4993891;28;20072;-71
2022/12/04 10:21:47;;;;;;;48.92;26.90;;;4.00;99.90;;;;;;4981319;28;20098;-72
2022/12/04 10:24:55;;;;;;;47.95;25.90;;;4.00;99.90;;;;;;4993660;28;20050;-72
2022/12/04 10:27:26;;;;;;;48.03;27.65;;;4.00;99.90;;;;;;4993676;28;20050;-72
2022/12/04 10:29:57;;;;;;;38.08;24.35;;;4.00;99.90;;;;;;4992584;28;20030;-72
2022/12/04 10:32:30;;;;;;;52.10;25.50;;;4.00;99.90;;;;;;4993937;28;20023;-72
2022/12/04 10:35:07;;;;;;;41.30;24.57;;;4.00;99.90;;;;;;4993069;28;20027;-72
2022/12/04 10:37:37;;;;;;;38.67;24.98;;;4.00;99.90;;;;;;4993640;28;20262;-72
2022/12/04 10:40:24;;;;;;;35.47;21.52;;;4.00;99.90;;;;;;4993528;28;20113;-72
2022/12/04 10:43:13;;;;;;;37.00;22.70;;;4.00;99.90;;;;;;4993478;28;20038;-71
2022/12/04 10:45:38;;;;;;;33.38;21.77;;;4.00;99.90;;;;;;4997947;28;20076;-72
2022/12/04 10:48:06;;;;;;;43.88;20.88;;;4.00;99.90;;;;;;5012511;28;20034;-72
2022/12/04 10:50:33;;;;;;;37.47;21.65;;;4.00;99.90;;;;;;5012906;28;20104;-71
2022/12/04 10:52:59;;;;;;;33.10;20.90;;;4.10;99.90;;;;;;5012949;28;20042;-72
2022/12/04 10:55:33;;;;;;;32.72;20.15;;;4.10;99.90;;;;;;5012808;28;20061;-72
2022/12/04 10:58:01;;;;;;;26.70;16.80;;;4.10;99.90;;;;;;5013467;28;20018;-72
2022/12/04 11:00:33;;;;;;;28.60;17.13;;;4.10;99.90;;;;;;5012335;28;20101;-72
2022/12/04 11:03:01;;;;;;;23.95;14.43;;;4.10;99.90;;;;;;5012785;28;20054;-72
2022/12/04 11:05:34;;;;;;;25.98;15.88;;;4.10;99.90;;;;;;5011642;28;20211;-72
2022/12/04 11:08:02;;;;;;;25.48;15.30;;;4.00;99.90;;;;;;5012445;28;20041;-71
2022/12/04 11:10:40;;;;;;;26.20;16.30;;;4.10;99.90;;;;;;5012614;28;20061;-72
2022/12/04 11:13:15;;;;;;;28.58;16.17;;;4.10;99.90;;;;;;4993746;28;20018;-72
2022/12/04 11:15:52;;;;;;;25.83;16.30;;;4.10;99.90;;;;;;4995181;28;20137;-72
2022/12/04 11:18:25;;;;;;;25.83;16.48;;;4.20;99.90;;;;;;5015084;28;20088;-70
2022/12/04 11:20:56;;;;;;;26.98;15.25;;;4.10;99.90;;;;;;5015827;28;20097;-71
2022/12/04 11:23:22;;;;;;;27.20;15.32;;;4.10;99.90;;;;;;5016220;28;20029;-70
2022/12/04 11:25:51;;;;;;;25.48;15.43;;;4.10;99.90;;;;;;5016407;28;20485;-71
2022/12/04 11:28:20;;;;;;;23.13;14.38;;;4.10;99.90;;;;;;5016069;28;20579;-72
2022/12/04 11:30:50;;;;;;;24.52;14.88;;;4.10;99.90;;;;;;5015265;28;20022;-72
2022/12/04 11:33:28;;;;;;;20.38;14.23;;;4.10;99.90;;;;;;5015993;28;20026;-71
2022/12/04 11:35:58;;;;;;;27.15;16.75;;;4.10;99.90;;;;;;5016314;28;20117;-71
2022/12/04 11:38:26;;;;;;;22.42;15.02;;;4.10;99.90;;;;;;5015859;28;20026;-72
2022/12/04 11:40:56;;;;;;;20.83;12.95;;;4.20;99.90;;;;;;5015532;28;20078;-72
2022/12/04 11:43:27;;;;;;;22.73;14.32;;;4.20;99.90;;;;;;5016465;28;20022;-71
2022/12/04 11:46:05;;;;;;;22.25;13.48;;;4.20;99.90;;;;;;5015784;28;20089;-71
2022/12/04 11:48:44;;;;;;;22.75;12.13;;;4.20;99.90;;;;;;5013969;28;20029;-72
2022/12/04 11:51:22;;;;;;;18.35;11.00;;;4.20;99.90;;;;;;5017015;28;20037;-71
2022/12/04 11:53:56;;;;;;;15.15;10.68;;;4.20;99.90;;;;;;5017657;28;20060;-71
2022/12/04 11:56:35;;;;;;;17.20;11.35;;;4.20;99.90;;;;;;5017072;28;20382;-71
2022/12/04 11:59:36;;;;;;;23.52;11.98;;;4.20;99.90;;;;;;5015905;28;20453;-71
2022/12/04 12:02:11;;;;;;;16.38;10.90;;;4.20;99.90;;;;;;5025323;28;20448;-72
2022/12/04 12:05:07;;;;;;;16.45;10.68;;;4.30;99.90;;;;;;5015694;28;20025;-71
2022/12/04 12:07:38;;;;;;;18.52;10.30;;;4.20;99.90;;;;;;5015728;28;20083;-72
2022/12/04 12:10:34;;;;;;;14.50;9.95;;;4.20;99.90;;;;;;5015604;28;20021;-71
2022/12/04 12:13:11;;;;;;;17.88;9.68;;;4.20;99.90;;;;;;5084402;22;20107;-72
2022/12/04 12:15:48;;;;;;;14.77;9.55;;;4.20;99.90;;;;;;5033922;28;20468;-72
2022/12/04 12:18:23;;;;;;;20.00;9.63;;;4.20;99.90;;;;;;5015366;28;20477;-71
2022/12/04 12:21:03;;;;;;;21.48;10.52;;;4.20;99.90;;;;;;5015273;28;20021;-73
2022/12/04 12:24:19;;;;;;;19.92;10.40;;;4.20;99.90;;;;;;5015414;28;20028;-71
2022/12/04 12:27:07;;;;;;;15.05;9.60;;;4.20;99.90;;;;;;4989487;28;20508;-72
2022/12/04 12:29:55;;;;;;;20.90;11.13;;;4.10;99.90;;;;;;5014625;28;20033;-71
2022/12/04 12:32:44;;;;;;;20.88;10.07;;;4.20;99.90;;;;;;4996572;28;20076;-72
2022/12/04 12:35:53;;;;;;;16.38;9.88;;;4.20;99.90;;;;;;5014755;28;20018;-70
2022/12/04 12:38:25;;;;;;;19.17;11.38;;;4.20;99.90;;;;;;4994191;28;20025;-71
2022/12/04 12:41:16;;;;;;;18.55;11.63;;;4.20;99.90;;;;;;5014011;28;20046;-70
2022/12/04 12:43:47;;;;;;;20.42;13.32;;;4.20;99.90;;;;;;5013357;28;20026;-71
2022/12/04 12:46:21;;;;;;;21.92;14.45;;;4.20;99.90;;;;;;5014544;28;20135;-70
2022/12/04 12:49:09;;;;;;;23.35;14.95;;;4.20;99.90;;;;;;5014450;28;20084;-70
2022/12/04 12:51:49;;;;;;;25.02;14.38;;;4.20;99.90;;;;;;5014435;28;20037;-70
2022/12/04 12:54:31;;;;;;;26.20;14.65;;;4.10;99.90;;;;;;5014331;28;20503;-71
2022/12/04 12:57:12;;;;;;;23.88;14.98;;;4.10;99.90;;;;;;5013766;28;20042;-71
2022/12/04 12:59:44;;;;;;;28.95;16.05;;;4.10;99.90;;;;;;5014440;28;20022;-70
2022/12/04 13:02:35;;;;;;;34.22;16.30;;;4.00;99.90;;;;;;5014401;28;20100;-70
2022/12/04 13:05:06;;;;;;;26.25;15.85;;;4.00;99.90;;;;;;5014875;28;20053;-70
2022/12/04 13:07:57;;;;;;;25.23;16.00;;;4.00;99.90;;;;;;5013546;28;20404;-71
2022/12/04 13:10:39;;;;;;;29.30;16.00;;;4.00;99.90;;;;;;4986068;28;20045;-71